Catano, PR (00963)

8:41 PM AST on June 03, 2015 (GMT -0400)
WP3W-WX @ Levittown | | Change Station
CLOSE
Current Station
Personal Weather Station
Location: Toa Baja, PR
Elevation: 10 ft
Nearby Weather Stations

Elev 10 ft 18.44 °N, 66.17 °W | Updated 11 minutes ago

Scattered Clouds
Scattered Clouds
83.5 °F
Feels Like 90 °F
N
3.8
Wind Variable Wind from SE

Today
High -- | Low -- °F
--% Chance of Precip.
Yesterday
High -- | Low -- °F
Precip. -- in
5:47 AM 6:58 PM
Full, 98% visible
Pressure 29.96 in
Visibility 10.0 miles
Clouds Few 3200 ft
Scattered Clouds 6000 ft
Heat Index 90 °F
Dew Point 74 °F
Humidity 72%
Rainfall 0.00 in
Snow Depth Not available.
UV 0 out of 12
Pollen Not available.
Air Quality Not available.
Flu Activity Local Activity
METAR TJSJ 032356Z 00000KT 10SM FEW032 SCT060 28/24 A2996 RMK AO2 SLP145 60000 T02830239 10306 20278 53014

More Conditions Fewer Conditions

Pressure 29.96 in
Visibility 10.0 miles
Clouds Few 3200 ft
Scattered Clouds 6000 ft
Heat Index 90 °F
Dew Point 74 °F
Humidity 72%
Rainfall 0.00 in
Snow Depth Not available.
UV 0 out of 12
Pollen Not available.
Air Quality Not available.
Flu Activity Local Activity
METAR TJSJ 032356Z 00000KT 10SM FEW032 SCT060 28/24 A2996 RMK AO2 SLP145 60000 T02830239 10306 20278 53014

More Conditions Fewer Conditions

10-Day Weather Forecast

×

Almanac

Astronomy

Jun. 03, 2015 Rise Set
Actual Time
Civil Twilight
Nautical Twilight
Astronomical Twilight
Moon
Length of Visible Light
Length of Day
Tomorrow will be .
, % of the Moon is Illuminated

Today's Extremes

State Highs State Lows

Community

WunderPhotos

Upload Photos

1,826,325 photos uploaded!

WunderBlogs® & News

Nearby

Air Quality

  Air Quality AQ Index Pollutant
Not available.

Snow Depth

Station Depth Elevation

Earthquake Activity

City Distance Mag. Time & Date
Minimum magnitude displayed is 2.5.

Coastal Water Temperatures

Place Temperature

Stations

Nearby Weather Stations

Station Location Temp. Windchill Dew Point Humidity Wind Precip. Elev Updated Type